sensor_id;sensor_type;location;lat;lon;timestamp;temperature;humidity
10583;DHT22;33679;51.218;6.786;2023-09-19T00:01:50;20.40;99.90
10583;DHT22;33679;51.218;6.786;2023-09-19T00:04:23;20.30;99.90
10583;DHT22;33679;51.218;6.786;2023-09-19T00:07:02;20.40;99.90
10583;DHT22;33679;51.218;6.786;2023-09-19T00:09:34;20.40;99.90
10583;DHT22;33679;51.218;6.786;2023-09-19T00:12:09;20.30;99.90
10583;DHT22;33679;51.218;6.786;2023-09-19T00:14:44;20.30;99.90
10583;DHT22;33679;51.218;6.786;2023-09-19T00:17:16;20.30;99.90
10583;DHT22;33679;51.218;6.786;2023-09-19T00:19:48;20.30;99.90
10583;DHT22;33679;51.218;6.786;2023-09-19T00:22:24;20.40;99.90
10583;DHT22;33679;51.218;6.786;2023-09-19T00:24:57;20.40;99.90
10583;DHT22;33679;51.218;6.786;2023-09-19T00:27:32;20.30;99.90
10583;DHT22;33679;51.218;6.786;2023-09-19T00:30:06;20.30;99.90
10583;DHT22;33679;51.218;6.786;2023-09-19T00:32:47;20.20;99.90
10583;DHT22;33679;51.218;6.786;2023-09-19T00:35:20;20.20;99.90
10583;DHT22;33679;51.218;6.786;2023-09-19T00:37:55;20.20;99.90
10583;DHT22;33679;51.218;6.786;2023-09-19T00:40:30;20.20;99.90
10583;DHT22;33679;51.218;6.786;2023-09-19T00:43:07;20.20;99.90
10583;DHT22;33679;51.218;6.786;2023-09-19T00:45:43;20.20;99.90
10583;DHT22;33679;51.218;6.786;2023-09-19T00:48:16;20.20;99.90
10583;DHT22;33679;51.218;6.786;2023-09-19T00:50:49;20.10;99.90
10583;DHT22;33679;51.218;6.786;2023-09-19T00:53:25;20.10;99.90
10583;DHT22;33679;51.218;6.786;2023-09-19T00:55:59;20.10;99.90
10583;DHT22;33679;51.218;6.786;2023-09-19T00:58:33;20.00;99.90
10583;DHT22;33679;51.218;6.786;2023-09-19T01:01:07;20.00;99.90
10583;DHT22;33679;51.218;6.786;2023-09-19T01:03:40;19.90;99.90
10583;DHT22;33679;51.218;6.786;2023-09-19T01:06:16;19.90;99.90
10583;DHT22;33679;51.218;6.786;2023-09-19T01:08:50;19.90;99.90
10583;DHT22;33679;51.218;6.786;2023-09-19T01:11:28;19.90;99.90
10583;DHT22;33679;51.218;6.786;2023-09-19T01:14:15;19.90;99.90
10583;DHT22;33679;51.218;6.786;2023-09-19T01:17:00;19.90;99.90
10583;DHT22;33679;51.218;6.786;2023-09-19T01:23:02;19.80;99.90
10583;DHT22;33679;51.218;6.786;2023-09-19T01:26:06;19.80;99.90
10583;DHT22;33679;51.218;6.786;2023-09-19T01:29:11;19.70;99.90
10583;DHT22;33679;51.218;6.786;2023-09-19T01:31:47;19.80;99.90
10583;DHT22;33679;51.218;6.786;2023-09-19T01:34:25;19.70;99.90
10583;DHT22;33679;51.218;6.786;2023-09-19T01:36:57;19.80;99.90
10583;DHT22;33679;51.218;6.786;2023-09-19T01:39:29;19.80;99.90
10583;DHT22;33679;51.218;6.786;2023-09-19T01:42:08;19.80;99.90
10583;DHT22;33679;51.218;6.786;2023-09-19T01:44:53;19.80;99.90
10583;DHT22;33679;51.218;6.786;2023-09-19T01:47:33;19.80;99.90
10583;DHT22;33679;51.218;6.786;2023-09-19T01:50:15;19.80;99.90
10583;DHT22;33679;51.218;6.786;2023-09-19T01:52:56;19.80;99.90
10583;DHT22;33679;51.218;6.786;2023-09-19T01:55:37;19.80;99.90
10583;DHT22;33679;51.218;6.786;2023-09-19T01:58:34;19.90;99.90
10583;DHT22;33679;51.218;6.786;2023-09-19T02:01:09;19.90;99.90
10583;DHT22;33679;51.218;6.786;2023-09-19T02:03:46;20.00;99.90
10583;DHT22;33679;51.218;6.786;2023-09-19T02:06:20;20.00;99.90
10583;DHT22;33679;51.218;6.786;2023-09-19T02:08:54;20.10;99.90
10583;DHT22;33679;51.218;6.786;2023-09-19T02:11:26;20.10;99.90
10583;DHT22;33679;51.218;6.786;2023-09-19T02:13:59;20.10;99.90
10583;DHT22;33679;51.218;6.786;2023-09-19T02:16:31;20.10;99.90
10583;DHT22;33679;51.218;6.786;2023-09-19T02:19:05;20.10;99.90
10583;DHT22;33679;51.218;6.786;2023-09-19T02:21:38;20.10;99.90
10583;DHT22;33679;51.218;6.786;2023-09-19T02:24:11;20.10;99.90
10583;DHT22;33679;51.218;6.786;2023-09-19T02:26:45;20.10;99.90
10583;DHT22;33679;51.218;6.786;2023-09-19T02:29:18;20.10;99.90
10583;DHT22;33679;51.218;6.786;2023-09-19T02:31:55;20.10;99.90
10583;DHT22;33679;51.218;6.786;2023-09-19T02:34:34;20.10;99.90
10583;DHT22;33679;51.218;6.786;2023-09-19T02:37:07;20.10;99.90
10583;DHT22;33679;51.218;6.786;2023-09-19T02:39:41;20.10;99.90
10583;DHT22;33679;51.218;6.786;2023-09-19T02:42:13;20.00;99.90
10583;DHT22;33679;51.218;6.786;2023-09-19T02:44:46;20.00;99.90
10583;DHT22;33679;51.218;6.786;2023-09-19T02:47:19;19.90;99.90
10583;DHT22;33679;51.218;6.786;2023-09-19T02:49:53;19.90;99.90
10583;DHT22;33679;51.218;6.786;2023-09-19T02:52:26;19.90;99.90
10583;DHT22;33679;51.218;6.786;2023-09-19T02:54:59;20.00;99.90
10583;DHT22;33679;51.218;6.786;2023-09-19T02:57:32;19.90;99.90
10583;DHT22;33679;51.218;6.786;2023-09-19T03:00:06;20.00;99.90
10583;DHT22;33679;51.218;6.786;2023-09-19T03:02:43;20.00;99.90
10583;DHT22;33679;51.218;6.786;2023-09-19T03:05:24;19.90;99.90
10583;DHT22;33679;51.218;6.786;2023-09-19T03:07:57;19.90;99.90
10583;DHT22;33679;51.218;6.786;2023-09-19T03:10:31;19.80;99.90
10583;DHT22;33679;51.218;6.786;2023-09-19T03:13:04;19.80;99.90
10583;DHT22;33679;51.218;6.786;2023-09-19T03:15:36;19.80;99.90
10583;DHT22;33679;51.218;6.786;2023-09-19T03:18:15;19.80;99.90
10583;DHT22;33679;51.218;6.786;2023-09-19T03:20:54;19.70;99.90
10583;DHT22;33679;51.218;6.786;2023-09-19T03:23:28;19.70;99.90
10583;DHT22;33679;51.218;6.786;2023-09-19T03:26:01;19.80;99.90
10583;DHT22;33679;51.218;6.786;2023-09-19T03:28:36;19.80;99.90
10583;DHT22;33679;51.218;6.786;2023-09-19T03:31:09;19.80;99.90
10583;DHT22;33679;51.218;6.786;2023-09-19T03:33:42;19.80;99.90
10583;DHT22;33679;51.218;6.786;2023-09-19T03:36:16;19.80;99.90
10583;DHT22;33679;51.218;6.786;2023-09-19T03:38:49;19.70;99.90
10583;DHT22;33679;51.218;6.786;2023-09-19T03:41:21;19.70;99.90
10583;DHT22;33679;51.218;6.786;2023-09-19T03:43:56;19.70;99.90
10583;DHT22;33679;51.218;6.786;2023-09-19T03:46:29;19.80;99.90
10583;DHT22;33679;51.218;6.786;2023-09-19T03:49:04;19.80;99.90
10583;DHT22;33679;51.218;6.786;2023-09-19T03:51:38;19.70;99.90
10583;DHT22;33679;51.218;6.786;2023-09-19T03:54:12;19.80;99.90
10583;DHT22;33679;51.218;6.786;2023-09-19T03:56:44;19.80;99.90
10583;DHT22;33679;51.218;6.786;2023-09-19T03:59:17;19.80;99.90
10583;DHT22;33679;51.218;6.786;2023-09-19T04:01:50;19.80;99.90
10583;DHT22;33679;51.218;6.786;2023-09-19T04:04:26;19.80;99.90
10583;DHT22;33679;51.218;6.786;2023-09-19T04:07:01;19.80;99.90
10583;DHT22;33679;51.218;6.786;2023-09-19T04:09:33;19.80;99.90
10583;DHT22;33679;51.218;6.786;2023-09-19T04:12:08;19.80;99.90
10583;DHT22;33679;51.218;6.786;2023-09-19T04:14:40;19.90;99.90
10583;DHT22;33679;51.218;6.786;2023-09-19T04:17:12;19.80;99.90
10583;DHT22;33679;51.218;6.786;2023-09-19T04:19:46;19.90;99.90
10583;DHT22;33679;51.218;6.786;2023-09-19T04:22:19;19.90;99.90
10583;DHT22;33679;51.218;6.786;2023-09-19T04:24:51;19.80;99.90
10583;DHT22;33679;51.218;6.786;2023-09-19T04:27:23;19.80;99.90
10583;DHT22;33679;51.218;6.786;2023-09-19T04:29:56;19.80;99.90
10583;DHT22;33679;51.218;6.786;2023-09-19T04:32:31;19.70;99.90
10583;DHT22;33679;51.218;6.786;2023-09-19T04:35:06;19.70;99.90
10583;DHT22;33679;51.218;6.786;2023-09-19T04:37:41;19.70;99.90
10583;DHT22;33679;51.218;6.786;2023-09-19T04:40:13;19.70;99.90
10583;DHT22;33679;51.218;6.786;2023-09-19T04:42:53;19.70;99.90
10583;DHT22;33679;51.218;6.786;2023-09-19T04:45:28;19.70;99.90
10583;DHT22;33679;51.218;6.786;2023-09-19T04:48:00;19.70;99.90
10583;DHT22;33679;51.218;6.786;2023-09-19T04:50:33;19.70;99.90
10583;DHT22;33679;51.218;6.786;2023-09-19T04:53:07;19.60;99.90
10583;DHT22;33679;51.218;6.786;2023-09-19T04:55:39;19.60;99.90
10583;DHT22;33679;51.218;6.786;2023-09-19T04:58:06;19.60;99.90
10583;DHT22;33679;51.218;6.786;2023-09-19T05:00:38;19.60;99.90
10583;DHT22;33679;51.218;6.786;2023-09-19T05:03:10;19.60;99.90
10583;DHT22;33679;51.218;6.786;2023-09-19T05:05:43;19.60;99.90
10583;DHT22;33679;51.218;6.786;2023-09-19T05:08:16;19.60;99.90
10583;DHT22;33679;51.218;6.786;2023-09-19T05:10:49;19.60;99.90
10583;DHT22;33679;51.218;6.786;2023-09-19T05:13:21;19.60;99.90
10583;DHT22;33679;51.218;6.786;2023-09-19T05:15:54;19.60;99.90
10583;DHT22;33679;51.218;6.786;2023-09-19T05:18:26;19.60;99.90
10583;DHT22;33679;51.218;6.786;2023-09-19T05:20:58;19.60;99.90
10583;DHT22;33679;51.218;6.786;2023-09-19T05:23:34;19.60;99.90
10583;DHT22;33679;51.218;6.786;2023-09-19T05:26:10;19.60;99.90
10583;DHT22;33679;51.218;6.786;2023-09-19T05:28:43;19.60;99.90
10583;DHT22;33679;51.218;6.786;2023-09-19T05:31:15;19.50;99.90
10583;DHT22;33679;51.218;6.786;2023-09-19T05:33:47;19.50;99.90
10583;DHT22;33679;51.218;6.786;2023-09-19T05:36:23;19.60;99.90
10583;DHT22;33679;51.218;6.786;2023-09-19T05:38:57;19.60;99.90
10583;DHT22;33679;51.218;6.786;2023-09-19T05:41:32;19.60;99.90
10583;DHT22;33679;51.218;6.786;2023-09-19T05:44:05;19.60;99.90
10583;DHT22;33679;51.218;6.786;2023-09-19T05:46:38;19.50;99.90
10583;DHT22;33679;51.218;6.786;2023-09-19T05:49:10;19.50;99.90
10583;DHT22;33679;51.218;6.786;2023-09-19T05:51:42;19.60;99.90
10583;DHT22;33679;51.218;6.786;2023-09-19T05:54:18;19.60;99.90
10583;DHT22;33679;51.218;6.786;2023-09-19T05:56:50;19.60;99.90
10583;DHT22;33679;51.218;6.786;2023-09-19T05:59:23;19.70;99.90
10583;DHT22;33679;51.218;6.786;2023-09-19T06:01:56;19.60;99.90
10583;DHT22;33679;51.218;6.786;2023-09-19T06:04:31;19.60;99.90
10583;DHT22;33679;51.218;6.786;2023-09-19T06:07:03;19.70;99.90
10583;DHT22;33679;51.218;6.786;2023-09-19T06:09:38;19.70;99.90
10583;DHT22;33679;51.218;6.786;2023-09-19T06:12:10;19.70;99.90
10583;DHT22;33679;51.218;6.786;2023-09-19T06:14:43;19.70;99.90
10583;DHT22;33679;51.218;6.786;2023-09-19T06:17:16;19.70;99.90
10583;DHT22;33679;51.218;6.786;2023-09-19T06:19:50;19.80;99.90
10583;DHT22;33679;51.218;6.786;2023-09-19T06:22:23;19.80;99.90
10583;DHT22;33679;51.218;6.786;2023-09-19T06:24:57;19.80;99.90
10583;DHT22;33679;51.218;6.786;2023-09-19T06:27:29;19.90;99.90
10583;DHT22;33679;51.218;6.786;2023-09-19T06:30:06;19.90;99.90
10583;DHT22;33679;51.218;6.786;2023-09-19T06:32:42;20.00;99.90
10583;DHT22;33679;51.218;6.786;2023-09-19T06:35:15;20.00;99.90
10583;DHT22;33679;51.218;6.786;2023-09-19T06:37:48;20.10;99.90
10583;DHT22;33679;51.218;6.786;2023-09-19T06:40:30;20.20;99.90
10583;DHT22;33679;51.218;6.786;2023-09-19T06:43:04;20.20;99.90
10583;DHT22;33679;51.218;6.786;2023-09-19T06:45:37;20.30;99.90
10583;DHT22;33679;51.218;6.786;2023-09-19T06:48:11;20.30;99.90
10583;DHT22;33679;51.218;6.786;2023-09-19T06:50:46;20.40;99.90
10583;DHT22;33679;51.218;6.786;2023-09-19T06:53:19;20.50;99.90
10583;DHT22;33679;51.218;6.786;2023-09-19T06:55:55;20.50;99.90
10583;DHT22;33679;51.218;6.786;2023-09-19T06:58:28;20.50;99.90
10583;DHT22;33679;51.218;6.786;2023-09-19T07:01:00;20.60;99.90
10583;DHT22;33679;51.218;6.786;2023-09-19T07:03:34;20.70;99.90
10583;DHT22;33679;51.218;6.786;2023-09-19T07:06:07;20.80;99.90
10583;DHT22;33679;51.218;6.786;2023-09-19T07:08:40;20.80;99.90
10583;DHT22;33679;51.218;6.786;2023-09-19T07:11:13;20.80;99.90
10583;DHT22;33679;51.218;6.786;2023-09-19T07:13:49;20.80;99.90
10583;DHT22;33679;51.218;6.786;2023-09-19T07:16:21;20.90;99.90
10583;DHT22;33679;51.218;6.786;2023-09-19T07:19:00;20.90;99.90
10583;DHT22;33679;51.218;6.786;2023-09-19T07:21:33;21.00;99.90
10583;DHT22;33679;51.218;6.786;2023-09-19T07:24:06;21.00;99.90
10583;DHT22;33679;51.218;6.786;2023-09-19T07:26:40;21.10;99.90
10583;DHT22;33679;51.218;6.786;2023-09-19T07:29:14;21.10;99.90
10583;DHT22;33679;51.218;6.786;2023-09-19T07:31:47;21.10;99.90
10583;DHT22;33679;51.218;6.786;2023-09-19T07:34:19;21.10;99.90
10583;DHT22;33679;51.218;6.786;2023-09-19T07:36:53;21.10;99.90
10583;DHT22;33679;51.218;6.786;2023-09-19T07:39:25;21.20;99.90
10583;DHT22;33679;51.218;6.786;2023-09-19T07:41:58;21.30;99.90
10583;DHT22;33679;51.218;6.786;2023-09-19T07:44:35;21.30;99.90
10583;DHT22;33679;51.218;6.786;2023-09-19T07:47:07;21.30;99.90
10583;DHT22;33679;51.218;6.786;2023-09-19T07:49:40;21.40;99.90
10583;DHT22;33679;51.218;6.786;2023-09-19T07:52:13;21.40;99.90
10583;DHT22;33679;51.218;6.786;2023-09-19T07:54:48;21.30;99.90
10583;DHT22;33679;51.218;6.786;2023-09-19T07:57:22;21.20;99.90
10583;DHT22;33679;51.218;6.786;2023-09-19T07:59:54;21.20;99.90
10583;DHT22;33679;51.218;6.786;2023-09-19T08:02:33;21.10;99.90
10583;DHT22;33679;51.218;6.786;2023-09-19T08:05:06;21.10;99.90
10583;DHT22;33679;51.218;6.786;2023-09-19T08:07:42;21.10;99.90
10583;DHT22;33679;51.218;6.786;2023-09-19T08:10:16;21.10;99.90
10583;DHT22;33679;51.218;6.786;2023-09-19T08:12:51;21.20;99.90
10583;DHT22;33679;51.218;6.786;2023-09-19T08:15:28;21.20;99.90
10583;DHT22;33679;51.218;6.786;2023-09-19T08:18:01;21.20;99.90
10583;DHT22;33679;51.218;6.786;2023-09-19T08:20:33;21.10;99.90
10583;DHT22;33679;51.218;6.786;2023-09-19T08:23:09;21.20;99.90
10583;DHT22;33679;51.218;6.786;2023-09-19T08:25:41;21.20;99.90
10583;DHT22;33679;51.218;6.786;2023-09-19T08:28:15;21.20;99.90
10583;DHT22;33679;51.218;6.786;2023-09-19T08:30:50;21.20;99.90
10583;DHT22;33679;51.218;6.786;2023-09-19T08:33:23;21.30;99.90
10583;DHT22;33679;51.218;6.786;2023-09-19T08:35:56;21.40;99.90
10583;DHT22;33679;51.218;6.786;2023-09-19T08:38:31;21.40;99.90
10583;DHT22;33679;51.218;6.786;2023-09-19T08:41:06;21.40;99.90
10583;DHT22;33679;51.218;6.786;2023-09-19T08:43:40;21.50;99.90
10583;DHT22;33679;51.218;6.786;2023-09-19T08:46:15;21.50;99.90
10583;DHT22;33679;51.218;6.786;2023-09-19T08:48:54;21.50;99.90
10583;DHT22;33679;51.218;6.786;2023-09-19T08:51:33;21.60;99.90
10583;DHT22;33679;51.218;6.786;2023-09-19T08:54:17;21.60;99.90
10583;DHT22;33679;51.218;6.786;2023-09-19T08:57:00;21.50;99.90
10583;DHT22;33679;51.218;6.786;2023-09-19T08:59:41;21.40;99.90
10583;DHT22;33679;51.218;6.786;2023-09-19T09:02:21;21.50;99.90
10583;DHT22;33679;51.218;6.786;2023-09-19T09:05:04;21.60;99.90
10583;DHT22;33679;51.218;6.786;2023-09-19T09:07:43;21.60;99.90
10583;DHT22;33679;51.218;6.786;2023-09-19T09:10:16;21.60;99.90
10583;DHT22;33679;51.218;6.786;2023-09-19T09:12:49;21.60;99.90
10583;DHT22;33679;51.218;6.786;2023-09-19T09:15:24;21.60;99.90
10583;DHT22;33679;51.218;6.786;2023-09-19T09:18:02;21.60;99.90
10583;DHT22;33679;51.218;6.786;2023-09-19T09:20:37;21.70;99.90
10583;DHT22;33679;51.218;6.786;2023-09-19T09:23:09;21.70;99.90
10583;DHT22;33679;51.218;6.786;2023-09-19T09:25:54;21.80;99.90
10583;DHT22;33679;51.218;6.786;2023-09-19T09:28:28;21.90;99.90
10583;DHT22;33679;51.218;6.786;2023-09-19T09:31:36;21.90;99.90
10583;DHT22;33679;51.218;6.786;2023-09-19T09:34:09;21.90;99.90
10583;DHT22;33679;51.218;6.786;2023-09-19T09:36:48;21.90;99.90
10583;DHT22;33679;51.218;6.786;2023-09-19T09:39:30;21.80;99.90
10583;DHT22;33679;51.218;6.786;2023-09-19T09:42:03;21.90;99.90
10583;DHT22;33679;51.218;6.786;2023-09-19T09:44:37;22.00;99.90
10583;DHT22;33679;51.218;6.786;2023-09-19T09:47:11;22.10;99.90
10583;DHT22;33679;51.218;6.786;2023-09-19T09:50:07;22.10;99.90
10583;DHT22;33679;51.218;6.786;2023-09-19T09:52:48;22.10;99.90
10583;DHT22;33679;51.218;6.786;2023-09-19T09:55:20;22.10;99.90
10583;DHT22;33679;51.218;6.786;2023-09-19T09:58:16;22.10;99.90
10583;DHT22;33679;51.218;6.786;2023-09-19T10:00:53;22.20;99.90
10583;DHT22;33679;51.218;6.786;2023-09-19T10:03:33;22.20;99.90
10583;DHT22;33679;51.218;6.786;2023-09-19T10:06:11;22.30;99.90
10583;DHT22;33679;51.218;6.786;2023-09-19T10:09:02;22.30;99.90
10583;DHT22;33679;51.218;6.786;2023-09-19T10:11:46;22.30;99.90
10583;DHT22;33679;51.218;6.786;2023-09-19T10:14:27;22.40;99.90
10583;DHT22;33679;51.218;6.786;2023-09-19T10:17:05;22.40;99.90
10583;DHT22;33679;51.218;6.786;2023-09-19T10:19:45;22.40;99.90
10583;DHT22;33679;51.218;6.786;2023-09-19T10:22:19;22.40;99.90
10583;DHT22;33679;51.218;6.786;2023-09-19T10:24:53;22.20;99.90
10583;DHT22;33679;51.218;6.786;2023-09-19T10:27:27;22.20;99.90
10583;DHT22;33679;51.218;6.786;2023-09-19T10:30:08;22.20;99.90
10583;DHT22;33679;51.218;6.786;2023-09-19T10:32:42;22.10;99.90
10583;DHT22;33679;51.218;6.786;2023-09-19T10:35:20;22.10;99.90
10583;DHT22;33679;51.218;6.786;2023-09-19T10:37:57;22.10;99.90
10583;DHT22;33679;51.218;6.786;2023-09-19T10:40:35;22.10;99.90
10583;DHT22;33679;51.218;6.786;2023-09-19T10:43:12;22.20;99.90
10583;DHT22;33679;51.218;6.786;2023-09-19T10:45:49;22.10;99.90
10583;DHT22;33679;51.218;6.786;2023-09-19T10:48:26;22.20;99.90
10583;DHT22;33679;51.218;6.786;2023-09-19T10:51:04;22.30;99.90
10583;DHT22;33679;51.218;6.786;2023-09-19T10:53:44;22.40;99.90
10583;DHT22;33679;51.218;6.786;2023-09-19T10:56:23;22.30;99.90
10583;DHT22;33679;51.218;6.786;2023-09-19T10:59:08;22.20;99.90
10583;DHT22;33679;51.218;6.786;2023-09-19T11:01:44;22.30;99.90
10583;DHT22;33679;51.218;6.786;2023-09-19T11:04:26;22.30;99.90
10583;DHT22;33679;51.218;6.786;2023-09-19T11:07:04;22.30;99.90
10583;DHT22;33679;51.218;6.786;2023-09-19T11:09:47;22.30;99.90
10583;DHT22;33679;51.218;6.786;2023-09-19T11:18:53;22.40;99.90
10583;DHT22;33679;51.218;6.786;2023-09-19T11:21:53;22.50;99.90
10583;DHT22;33679;51.218;6.786;2023-09-19T11:24:33;22.50;99.90
10583;DHT22;33679;51.218;6.786;2023-09-19T11:27:20;22.50;99.90
10583;DHT22;33679;51.218;6.786;2023-09-19T11:30:27;22.50;99.90
10583;DHT22;33679;51.218;6.786;2023-09-19T11:33:17;22.60;99.90
10583;DHT22;33679;51.218;6.786;2023-09-19T11:36:04;22.50;99.90
10583;DHT22;33679;51.218;6.786;2023-09-19T11:38:57;22.50;99.90
10583;DHT22;33679;51.218;6.786;2023-09-19T11:41:40;22.50;99.90
10583;DHT22;33679;51.218;6.786;2023-09-19T11:44:32;22.40;99.90
10583;DHT22;33679;51.218;6.786;2023-09-19T11:47:10;22.50;99.90
10583;DHT22;33679;51.218;6.786;2023-09-19T11:49:45;22.40;99.90
10583;DHT22;33679;51.218;6.786;2023-09-19T11:52:22;22.40;99.90
10583;DHT22;33679;51.218;6.786;2023-09-19T11:54:56;22.40;99.90
10583;DHT22;33679;51.218;6.786;2023-09-19T11:57:30;22.40;99.90
10583;DHT22;33679;51.218;6.786;2023-09-19T12:00:05;22.40;99.90
10583;DHT22;33679;51.218;6.786;2023-09-19T12:02:47;22.50;99.90
10583;DHT22;33679;51.218;6.786;2023-09-19T12:05:28;22.50;99.90
10583;DHT22;33679;51.218;6.786;2023-09-19T12:08:01;22.60;99.90
10583;DHT22;33679;51.218;6.786;2023-09-19T12:10:52;22.60;99.90
10583;DHT22;33679;51.218;6.786;2023-09-19T12:13:27;22.70;99.90
10583;DHT22;33679;51.218;6.786;2023-09-19T12:16:03;22.80;99.90
10583;DHT22;33679;51.218;6.786;2023-09-19T12:18:45;22.90;99.90
10583;DHT22;33679;51.218;6.786;2023-09-19T12:21:27;23.00;99.90
10583;DHT22;33679;51.218;6.786;2023-09-19T12:24:06;23.00;99.90
10583;DHT22;33679;51.218;6.786;2023-09-19T12:26:43;23.00;99.90
10583;DHT22;33679;51.218;6.786;2023-09-19T12:29:19;22.90;99.90
10583;DHT22;33679;51.218;6.786;2023-09-19T12:31:53;23.00;99.90
10583;DHT22;33679;51.218;6.786;2023-09-19T12:34:29;23.00;99.90
10583;DHT22;33679;51.218;6.786;2023-09-19T12:37:06;23.00;99.90
10583;DHT22;33679;51.218;6.786;2023-09-19T12:39:44;23.00;99.90
10583;DHT22;33679;51.218;6.786;2023-09-19T12:42:21;23.00;99.90
10583;DHT22;33679;51.218;6.786;2023-09-19T12:44:56;23.00;99.90
10583;DHT22;33679;51.218;6.786;2023-09-19T12:47:31;23.00;99.90
10583;DHT22;33679;51.218;6.786;2023-09-19T12:50:06;23.10;99.90
10583;DHT22;33679;51.218;6.786;2023-09-19T12:52:45;23.10;99.90
10583;DHT22;33679;51.218;6.786;2023-09-19T12:55:36;23.00;99.90
10583;DHT22;33679;51.218;6.786;2023-09-19T12:58:15;23.00;99.90
10583;DHT22;33679;51.218;6.786;2023-09-19T13:00:51;23.10;99.90
10583;DHT22;33679;51.218;6.786;2023-09-19T13:03:26;23.20;99.90
10583;DHT22;33679;51.218;6.786;2023-09-19T13:06:00;23.20;99.90
10583;DHT22;33679;51.218;6.786;2023-09-19T13:08:35;23.20;99.90
10583;DHT22;33679;51.218;6.786;2023-09-19T13:11:10;23.20;99.90
10583;DHT22;33679;51.218;6.786;2023-09-19T13:13:47;23.20;99.90
10583;DHT22;33679;51.218;6.786;2023-09-19T13:16:24;23.30;99.90
10583;DHT22;33679;51.218;6.786;2023-09-19T13:18:56;23.40;99.90
10583;DHT22;33679;51.218;6.786;2023-09-19T13:21:30;23.40;99.90
10583;DHT22;33679;51.218;6.786;2023-09-19T13:24:20;23.40;99.90
10583;DHT22;33679;51.218;6.786;2023-09-19T13:26:53;23.50;99.90
10583;DHT22;33679;51.218;6.786;2023-09-19T13:29:26;23.50;99.90
10583;DHT22;33679;51.218;6.786;2023-09-19T13:32:03;23.60;99.90
10583;DHT22;33679;51.218;6.786;2023-09-19T13:34:38;23.60;99.90
10583;DHT22;33679;51.218;6.786;2023-09-19T13:37:11;23.70;99.90
10583;DHT22;33679;51.218;6.786;2023-09-19T13:39:44;23.60;99.90
10583;DHT22;33679;51.218;6.786;2023-09-19T13:42:18;23.60;99.90
10583;DHT22;33679;51.218;6.786;2023-09-19T13:44:58;23.60;99.90
10583;DHT22;33679;51.218;6.786;2023-09-19T13:47:36;23.60;99.90
10583;DHT22;33679;51.218;6.786;2023-09-19T13:50:09;23.60;99.90
10583;DHT22;33679;51.218;6.786;2023-09-19T13:52:42;23.70;99.90
10583;DHT22;33679;51.218;6.786;2023-09-19T13:55:14;23.70;99.90
10583;DHT22;33679;51.218;6.786;2023-09-19T13:57:51;23.80;99.90
10583;DHT22;33679;51.218;6.786;2023-09-19T14:00:26;23.80;99.90
10583;DHT22;33679;51.218;6.786;2023-09-19T14:03:00;23.70;99.90
10583;DHT22;33679;51.218;6.786;2023-09-19T14:05:33;23.70;99.90
10583;DHT22;33679;51.218;6.786;2023-09-19T14:08:07;23.70;99.90
10583;DHT22;33679;51.218;6.786;2023-09-19T14:10:42;23.60;99.90
10583;DHT22;33679;51.218;6.786;2023-09-19T14:13:14;23.50;99.90
10583;DHT22;33679;51.218;6.786;2023-09-19T14:15:47;23.50;99.90
10583;DHT22;33679;51.218;6.786;2023-09-19T14:18:21;23.40;99.90
10583;DHT22;33679;51.218;6.786;2023-09-19T14:20:54;23.40;99.90
10583;DHT22;33679;51.218;6.786;2023-09-19T14:23:26;23.40;99.90
10583;DHT22;33679;51.218;6.786;2023-09-19T14:26:01;23.40;99.90
10583;DHT22;33679;51.218;6.786;2023-09-19T14:28:33;23.30;99.90
10583;DHT22;33679;51.218;6.786;2023-09-19T14:31:09;23.40;99.90
10583;DHT22;33679;51.218;6.786;2023-09-19T14:33:43;23.50;99.90
10583;DHT22;33679;51.218;6.786;2023-09-19T14:36:15;23.40;99.90
10583;DHT22;33679;51.218;6.786;2023-09-19T14:38:48;23.40;99.90
10583;DHT22;33679;51.218;6.786;2023-09-19T14:41:25;23.40;99.90
10583;DHT22;33679;51.218;6.786;2023-09-19T14:43:58;23.50;99.90
10583;DHT22;33679;51.218;6.786;2023-09-19T14:46:31;23.50;99.90
10583;DHT22;33679;51.218;6.786;2023-09-19T14:49:06;23.40;99.90
10583;DHT22;33679;51.218;6.786;2023-09-19T14:51:41;23.40;99.90
10583;DHT22;33679;51.218;6.786;2023-09-19T14:54:15;23.40;99.90
10583;DHT22;33679;51.218;6.786;2023-09-19T14:56:49;23.30;99.90
10583;DHT22;33679;51.218;6.786;2023-09-19T14:59:27;23.30;99.90
10583;DHT22;33679;51.218;6.786;2023-09-19T15:01:59;23.30;99.90
10583;DHT22;33679;51.218;6.786;2023-09-19T15:04:34;23.30;99.90
10583;DHT22;33679;51.218;6.786;2023-09-19T15:07:06;23.30;99.90
10583;DHT22;33679;51.218;6.786;2023-09-19T15:09:41;23.20;99.90
10583;DHT22;33679;51.218;6.786;2023-09-19T15:12:18;23.20;99.90
10583;DHT22;33679;51.218;6.786;2023-09-19T15:14:52;23.20;99.90
10583;DHT22;33679;51.218;6.786;2023-09-19T15:17:25;23.10;99.90
10583;DHT22;33679;51.218;6.786;2023-09-19T15:20:01;23.10;99.90
10583;DHT22;33679;51.218;6.786;2023-09-19T15:22:37;23.00;99.90
10583;DHT22;33679;51.218;6.786;2023-09-19T15:25:11;23.10;99.90
10583;DHT22;33679;51.218;6.786;2023-09-19T15:27:43;23.20;99.90
10583;DHT22;33679;51.218;6.786;2023-09-19T15:30:16;23.20;99.90
10583;DHT22;33679;51.218;6.786;2023-09-19T15:32:48;23.10;99.90
10583;DHT22;33679;51.218;6.786;2023-09-19T15:35:26;23.20;99.90
10583;DHT22;33679;51.218;6.786;2023-09-19T15:37:59;23.10;99.90
10583;DHT22;33679;51.218;6.786;2023-09-19T15:40:32;23.20;99.90
10583;DHT22;33679;51.218;6.786;2023-09-19T15:43:04;23.10;99.90
10583;DHT22;33679;51.218;6.786;2023-09-19T15:45:36;23.10;99.90
10583;DHT22;33679;51.218;6.786;2023-09-19T15:48:08;23.10;99.90
10583;DHT22;33679;51.218;6.786;2023-09-19T15:50:42;23.10;99.90
10583;DHT22;33679;51.218;6.786;2023-09-19T15:53:15;23.20;99.90
10583;DHT22;33679;51.218;6.786;2023-09-19T15:55:48;23.20;99.90
10583;DHT22;33679;51.218;6.786;2023-09-19T15:58:24;23.20;99.90
10583;DHT22;33679;51.218;6.786;2023-09-19T16:00:57;23.10;99.90
10583;DHT22;33679;51.218;6.786;2023-09-19T16:03:29;23.10;99.90
10583;DHT22;33679;51.218;6.786;2023-09-19T16:06:08;23.10;99.90
10583;DHT22;33679;51.218;6.786;2023-09-19T16:08:41;23.10;99.90
10583;DHT22;33679;51.218;6.786;2023-09-19T16:11:16;23.10;99.90
10583;DHT22;33679;51.218;6.786;2023-09-19T16:13:52;23.00;99.90
10583;DHT22;33679;51.218;6.786;2023-09-19T16:16:26;23.00;99.90
10583;DHT22;33679;51.218;6.786;2023-09-19T16:19:02;23.00;99.90
10583;DHT22;33679;51.218;6.786;2023-09-19T16:21:38;23.00;99.90
10583;DHT22;33679;51.218;6.786;2023-09-19T16:24:20;23.10;99.90
10583;DHT22;33679;51.218;6.786;2023-09-19T16:26:53;23.10;99.90
10583;DHT22;33679;51.218;6.786;2023-09-19T16:29:27;23.20;99.90
10583;DHT22;33679;51.218;6.786;2023-09-19T16:32:06;23.20;99.90
10583;DHT22;33679;51.218;6.786;2023-09-19T16:34:42;23.20;99.90